Time;durP1;ratioP1;P1;durP2;ratioP2;P2;SDS_P1;SDS_P2;PMS_P1;PMS_P2;Temp;Humidity;BMP_temperature;BMP_pressure;BME280_temperature;BME280_humidity;BME280_pressure;Samples;Min_cycle;Max_cycle;Signal;HPM_P1;HPM_P2
2021/11/04 00:02:21;;;;;;;14.43;7.90;;;;;;;;;;1882056;75;21185;-79
2021/11/04 00:04:52;;;;;;;14.63;8.05;;;25.60;99.90;;;;;;1879457;75;21139;-80
2021/11/04 00:07:24;;;;;;;13.25;7.53;;;26.00;99.90;;;;;;1878722;76;21627;-79
2021/11/04 00:09:55;;;;;;;15.28;7.85;;;25.80;99.90;;;;;;1890089;73;21178;-80
2021/11/04 00:12:26;;;;;;;15.08;8.35;;;26.00;99.90;;;;;;1898255;75;21450;-80
2021/11/04 00:14:57;;;;;;;13.45;8.33;;;25.90;99.90;;;;;;1888972;75;21221;-81
2021/11/04 00:17:28;;;;;;;13.58;7.75;;;26.10;99.90;;;;;;1843185;77;21120;-80
2021/11/04 00:19:58;;;;;;;13.05;8.80;;;26.10;99.90;;;;;;1892213;75;21189;-80
2021/11/04 00:22:29;;;;;;;12.25;7.70;;;26.00;99.90;;;;;;1889978;74;21072;-80
2021/11/04 00:25:00;;;;;;;15.65;7.35;;;26.30;99.90;;;;;;1885969;75;21611;-80
2021/11/04 00:27:31;;;;;;;12.03;7.22;;;26.50;99.90;;;;;;1887149;75;21605;-80
2021/11/04 00:30:03;;;;;;;12.88;6.92;;;26.40;99.90;;;;;;1888335;75;21650;-81
2021/11/04 00:32:35;;;;;;;14.53;7.10;;;26.40;99.90;;;;;;1892720;74;21040;-80
2021/11/04 00:35:06;;;;;;;13.08;7.00;;;26.40;99.90;;;;;;1894757;75;21107;-80
2021/11/04 00:37:37;;;;;;;10.63;6.78;;;26.50;99.90;;;;;;1899185;74;21048;-80
2021/11/04 00:40:09;;;;;;;14.70;7.25;;;26.50;99.90;;;;;;1887475;75;21142;-80
2021/11/04 00:42:41;;;;;;;11.60;6.55;;;26.60;99.90;;;;;;1908925;75;21473;-80
2021/11/04 00:45:12;;;;;;;10.48;6.30;;;26.60;99.90;;;;;;1900494;75;21139;-80
2021/11/04 00:47:44;;;;;;;10.78;5.85;;;26.70;99.90;;;;;;1889696;75;21172;-80
2021/11/04 00:50:15;;;;;;;13.03;6.42;;;26.70;99.90;;;;;;1889451;75;21125;-80
2021/11/04 00:52:45;;;;;;;13.13;6.25;;;26.60;99.90;;;;;;1911956;75;21099;-79
2021/11/04 00:55:17;;;;;;;8.90;5.55;;;26.70;99.90;;;;;;1885145;75;21214;-79
2021/11/04 00:57:49;;;;;;;14.95;5.95;;;26.70;99.90;;;;;;1891595;75;21610;-80
2021/11/04 01:00:20;;;;;;;12.58;6.10;;;26.80;99.90;;;;;;1892397;75;21100;-81
2021/11/04 01:02:51;;;;;;;11.25;5.67;;;26.90;99.90;;;;;;1892768;74;21136;-81
2021/11/04 01:05:21;;;;;;;12.85;6.00;;;26.90;99.90;;;;;;1894666;74;21137;-80
2021/11/04 01:07:53;;;;;;;11.18;6.28;;;27.10;99.90;;;;;;1881053;75;21193;-81
2021/11/04 01:10:25;;;;;;;15.05;7.28;;;26.90;99.90;;;;;;1902824;73;21560;-81
2021/11/04 01:12:56;;;;;;;8.75;5.62;;;26.90;99.90;;;;;;1901563;75;21622;-81
2021/11/04 01:15:26;;;;;;;13.68;5.53;;;27.20;99.90;;;;;;1897173;75;21120;-80
2021/11/04 01:17:57;;;;;;;10.08;5.58;;;27.10;99.90;;;;;;1888627;73;21645;-80
2021/11/04 01:20:28;;;;;;;9.20;6.47;;;27.10;99.90;;;;;;1896600;75;21112;-81
2021/11/04 01:22:59;;;;;;;13.50;6.25;;;27.20;99.90;;;;;;1905223;75;21100;-80
2021/11/04 01:25:31;;;;;;;9.80;6.28;;;27.00;99.90;;;;;;1889983;75;21147;-80
2021/11/04 01:28:06;;;;;;;10.35;5.12;;;27.40;99.90;;;;;;1880544;75;21194;-78
2021/11/04 01:30:33;;;;;;;9.65;5.05;;;27.10;99.90;;;;;;1874806;75;21242;-80
2021/11/04 01:33:05;;;;;;;9.55;5.55;;;27.10;99.90;;;;;;1876624;75;21487;-80
2021/11/04 01:35:37;;;;;;;10.55;5.30;;;27.30;99.90;;;;;;1871653;75;21392;-80
2021/11/04 01:38:08;;;;;;;9.65;5.50;;;27.30;99.90;;;;;;1849714;76;21213;-80
2021/11/04 01:40:40;;;;;;;7.28;5.33;;;27.30;99.90;;;;;;1868210;76;21228;-80
2021/11/04 01:43:11;;;;;;;10.10;5.65;;;27.40;99.90;;;;;;1852496;76;21241;-80
2021/11/04 01:45:42;;;;;;;10.95;5.20;;;27.40;99.90;;;;;;1874097;76;21178;-80
2021/11/04 01:48:13;;;;;;;11.53;6.33;;;27.40;99.90;;;;;;1870130;75;21678;-80
2021/11/04 01:50:44;;;;;;;10.05;5.62;;;27.30;99.90;;;;;;1875124;75;22086;-81
2021/11/04 01:53:16;;;;;;;8.68;5.12;;;27.60;98.70;;;;;;1873308;75;21163;-80
2021/11/04 01:55:47;;;;;;;8.63;5.28;;;27.40;98.40;;;;;;1875532;76;21135;-79
2021/11/04 01:58:19;;;;;;;10.23;5.20;;;27.50;98.20;;;;;;1880659;75;21531;-80
2021/11/04 02:00:50;;;;;;;10.80;5.33;;;27.60;98.10;;;;;;1843700;78;21146;-79
2021/11/04 02:03:23;;;;;;;11.85;5.40;;;27.60;98.00;;;;;;1865019;75;21383;-79
2021/11/04 02:05:56;;;;;;;9.40;4.90;;;27.50;98.00;;;;;;1851604;76;21138;-80
2021/11/04 02:08:30;;;;;;;7.95;5.22;;;27.60;98.00;;;;;;1870968;75;21163;-81
2021/11/04 02:11:03;;;;;;;10.40;4.42;;;27.80;98.10;;;;;;1867700;75;21122;-80
2021/11/04 02:13:36;;;;;;;10.05;5.28;;;27.50;98.10;;;;;;1881344;75;21535;-80
2021/11/04 02:16:07;;;;;;;8.85;4.92;;;27.80;98.10;;;;;;1849455;76;21609;-79
2021/11/04 02:18:41;;;;;;;8.95;4.65;;;27.70;97.90;;;;;;1867923;75;21189;-79
2021/11/04 02:21:14;;;;;;;6.83;3.80;;;27.70;97.70;;;;;;1842990;78;21162;-79
2021/11/04 02:23:47;;;;;;;9.98;5.08;;;27.70;97.70;;;;;;1883565;75;21112;-79
2021/11/04 02:26:20;;;;;;;8.58;4.33;;;28.00;97.80;;;;;;1891402;75;21116;-79
2021/11/04 02:28:53;;;;;;;9.75;4.62;;;27.80;97.70;;;;;;1887747;75;21122;-78
2021/11/04 02:31:24;;;;;;;7.92;4.40;;;27.90;97.70;;;;;;1890544;75;21202;-78
2021/11/04 02:33:56;;;;;;;9.68;5.17;;;28.00;97.90;;;;;;1877854;75;21076;-80
2021/11/04 02:36:27;;;;;;;10.15;5.20;;;28.10;97.80;;;;;;1875660;75;21227;-80
2021/11/04 02:38:59;;;;;;;8.33;5.10;;;28.10;97.70;;;;;;1834519;78;21134;-80
2021/11/04 02:41:32;;;;;;;13.15;8.88;;;28.20;97.70;;;;;;1890071;75;21135;-79
2021/11/04 02:44:08;;;;;;;8.63;5.70;;;28.50;97.70;;;;;;1892351;75;21194;-80
2021/11/04 02:46:38;;;;;;;9.65;5.40;;;28.40;97.60;;;;;;1881466;75;21273;-80
2021/11/04 02:49:11;;;;;;;10.13;5.90;;;28.40;97.20;;;;;;1895784;75;21093;-80
2021/11/04 02:51:41;;;;;;;9.63;5.55;;;28.50;97.20;;;;;;1888563;75;21159;-80
2021/11/04 02:54:12;;;;;;;10.63;5.08;;;28.50;97.00;;;;;;1892020;75;21173;-79
2021/11/04 02:56:45;;;;;;;8.78;5.33;;;28.50;97.00;;;;;;1887698;76;21162;-80
2021/11/04 02:59:18;;;;;;;10.30;5.20;;;28.60;97.00;;;;;;1894525;75;21596;-79
2021/11/04 03:01:52;;;;;;;10.30;5.03;;;28.60;97.20;;;;;;1877626;75;21214;-81
2021/11/04 03:04:23;;;;;;;10.75;5.15;;;28.70;97.00;;;;;;1892089;75;21269;-79
2021/11/04 03:06:55;;;;;;;8.78;4.53;;;28.70;97.10;;;;;;1874187;75;21057;-81
2021/11/04 03:09:25;;;;;;;8.85;5.20;;;28.70;97.00;;;;;;1812666;78;21266;-81
2021/11/04 03:12:00;;;;;;;10.28;4.50;;;29.00;96.90;;;;;;1881052;75;21041;-80
2021/11/04 03:14:37;;;;;;;8.43;4.83;;;29.20;96.60;;;;;;1837862;78;21115;-80
2021/11/04 03:17:06;;;;;;;10.30;4.67;;;29.20;96.50;;;;;;1830789;77;21547;-79
2021/11/04 03:19:37;;;;;;;10.32;5.42;;;29.20;96.00;;;;;;1879947;75;21274;-79
2021/11/04 03:22:13;;;;;;;10.23;4.83;;;29.70;96.40;;;;;;1874194;75;21179;-78
2021/11/04 03:24:44;;;;;;;9.27;5.17;;;29.50;95.90;;;;;;1894222;75;21695;-78
2021/11/04 03:27:17;;;;;;;8.80;4.80;;;29.60;95.70;;;;;;1875155;75;21088;-79
2021/11/04 03:29:49;;;;;;;11.65;5.12;;;29.80;95.50;;;;;;1874376;75;21146;-78
2021/11/04 03:32:22;;;;;;;10.85;4.80;;;29.90;95.60;;;;;;1904919;75;21568;-78
2021/11/04 03:34:54;;;;;;;10.85;4.55;;;30.00;95.20;;;;;;1908581;75;21619;-79
2021/11/04 03:37:28;;;;;;;9.50;4.45;;;30.00;96.10;;;;;;1885074;75;21619;-78
2021/11/04 03:39:59;;;;;;;10.63;4.87;;;30.10;99.90;;;;;;1897494;75;21974;-79
2021/11/04 03:42:31;;;;;;;9.00;4.62;;;30.20;97.70;;;;;;1910709;75;21088;-78
2021/11/04 03:45:03;;;;;;;8.40;4.72;;;30.40;97.10;;;;;;1905900;75;21163;-79
2021/11/04 03:47:35;;;;;;;7.28;3.92;;;30.70;96.70;;;;;;1903367;74;21572;-79
2021/11/04 03:50:08;;;;;;;8.53;4.00;;;30.50;95.70;;;;;;1896606;73;21508;-79
2021/11/04 03:52:41;;;;;;;6.97;4.45;;;30.70;95.40;;;;;;1899646;75;21124;-79
2021/11/04 03:55:15;;;;;;;8.38;4.75;;;30.60;96.60;;;;;;1895950;73;21597;-79
2021/11/04 03:57:46;;;;;;;8.90;4.47;;;30.70;98.30;;;;;;1897435;75;21186;-79
2021/11/04 04:00:18;;;;;;;7.03;4.45;;;30.80;95.70;;;;;;1892848;75;21603;-79
2021/11/04 04:02:50;;;;;;;8.43;3.77;;;30.90;93.00;;;;;;1882135;75;21143;-79
2021/11/04 04:05:23;;;;;;;7.78;4.12;;;31.00;91.10;;;;;;1879063;75;21132;-79
2021/11/04 04:07:54;;;;;;;9.30;4.15;;;31.00;90.10;;;;;;1894882;75;21205;-80
2021/11/04 04:10:27;;;;;;;8.60;4.65;;;31.00;89.50;;;;;;1891962;75;21041;-81
2021/11/04 04:12:58;;;;;;;6.75;3.75;;;31.30;89.50;;;;;;1896385;75;21132;-81
2021/11/04 04:15:28;;;;;;;7.58;4.12;;;31.20;84.70;;;;;;1887916;75;21637;-80
2021/11/04 04:17:59;;;;;;;7.92;4.33;;;31.40;88.00;;;;;;1891794;75;21171;-78
2021/11/04 04:20:30;;;;;;;7.28;2.92;;;31.40;88.10;;;;;;1887456;75;21173;-79
2021/11/04 04:23:01;;;;;;;9.10;3.42;;;31.50;81.80;;;;;;1889744;75;21114;-79
2021/11/04 04:25:31;;;;;;;6.80;2.60;;;31.50;81.30;;;;;;1895628;75;21120;-80
2021/11/04 04:28:02;;;;;;;6.75;3.37;;;31.70;79.40;;;;;;1884721;75;21147;-80
2021/11/04 04:30:33;;;;;;;10.28;3.20;;;31.80;78.10;;;;;;1888041;75;21106;-80
2021/11/04 04:33:04;;;;;;;6.37;3.27;;;31.70;79.50;;;;;;1896876;75;21697;-80
2021/11/04 04:35:35;;;;;;;8.15;3.50;;;31.80;78.80;;;;;;1892756;75;21135;-79
2021/11/04 04:38:06;;;;;;;8.58;3.40;;;31.70;77.70;;;;;;1890190;75;21061;-79
2021/11/04 04:40:36;;;;;;;10.38;3.60;;;31.70;77.60;;;;;;1896005;75;21870;-78
2021/11/04 04:43:07;;;;;;;8.85;3.47;;;31.90;77.40;;;;;;1893139;75;21141;-80
2021/11/04 04:45:43;;;;;;;6.53;2.77;;;31.60;77.40;;;;;;1895226;75;21129;-79
2021/11/04 04:48:13;;;;;;;;;;;31.90;76.00;;;;;;1899067;75;21135;-79
2021/11/04 04:50:44;;;;;;;5.67;2.95;;;31.90;76.70;;;;;;1885199;75;20414;-79
2021/11/04 04:53:15;;;;;;;7.70;3.17;;;32.00;75.10;;;;;;1890338;75;21228;-81
2021/11/04 04:55:49;;;;;;;6.75;3.50;;;32.10;73.70;;;;;;1894755;75;21555;-79
2021/11/04 04:58:19;;;;;;;7.42;3.47;;;32.20;73.80;;;;;;1894309;75;21171;-81
2021/11/04 05:00:50;;;;;;;7.45;2.90;;;32.20;72.70;;;;;;1894587;75;21402;-78
2021/11/04 05:03:21;;;;;;;5.92;2.45;;;32.30;72.20;;;;;;1896466;75;21810;-80
2021/11/04 05:05:51;;;;;;;6.95;3.10;;;32.40;72.70;;;;;;1887382;75;21205;-79
2021/11/04 05:08:22;;;;;;;5.53;2.72;;;32.40;72.30;;;;;;1890562;75;21224;-79
2021/11/04 05:10:53;;;;;;;9.08;5.08;;;32.40;72.30;;;;;;1886817;75;21575;-78
2021/11/04 05:13:26;;;;;;;5.92;2.83;;;32.40;72.50;;;;;;1888335;73;21612;-80
2021/11/04 05:15:58;;;;;;;7.58;2.70;;;32.30;72.80;;;;;;1886241;75;21155;-79
2021/11/04 05:18:29;;;;;;;4.83;2.95;;;32.30;74.30;;;;;;1887414;75;21167;-79
2021/11/04 05:20:59;;;;;;;6.60;3.00;;;32.30;74.40;;;;;;1891649;75;21124;-79
2021/11/04 05:23:30;;;;;;;6.78;2.83;;;32.30;74.80;;;;;;1814007;78;21559;-81
2021/11/04 05:26:04;;;;;;;5.37;2.58;;;32.30;74.60;;;;;;1863103;75;21220;-78
2021/11/04 05:28:36;;;;;;;7.12;3.12;;;32.30;73.80;;;;;;1895548;75;21096;-79
2021/11/04 05:31:07;;;;;;;5.17;2.75;;;32.30;73.90;;;;;;1886945;75;21076;-80
2021/11/04 05:33:38;;;;;;;8.95;2.90;;;32.30;73.40;;;;;;1884255;75;21092;-79
2021/11/04 05:36:09;;;;;;;6.95;3.20;;;32.40;73.10;;;;;;1875883;75;21136;-79
2021/11/04 05:38:40;;;;;;;6.53;2.65;;;32.30;73.40;;;;;;1890123;75;21179;-79
2021/11/04 05:41:11;;;;;;;6.53;3.33;;;32.60;73.90;;;;;;1892460;75;21139;-79
2021/11/04 05:43:41;;;;;;;9.10;3.22;;;32.30;73.60;;;;;;1890564;75;21171;-78
2021/11/04 05:46:13;;;;;;;10.03;3.35;;;32.30;74.10;;;;;;1888712;75;21068;-79
2021/11/04 05:48:44;;;;;;;8.95;2.90;;;32.40;73.80;;;;;;1892453;75;21184;-79
2021/11/04 05:51:14;;;;;;;7.05;3.17;;;32.50;73.90;;;;;;1893692;75;21139;-80
2021/11/04 05:53:45;;;;;;;8.65;3.10;;;32.50;74.30;;;;;;1898428;74;22406;-80
2021/11/04 05:56:17;;;;;;;5.95;3.17;;;32.50;73.90;;;;;;1891139;75;21234;-79
2021/11/04 05:58:48;;;;;;;5.65;3.10;;;32.40;74.40;;;;;;1889754;75;21503;-79
2021/11/04 06:01:18;;;;;;;6.08;3.60;;;32.30;73.90;;;;;;1879037;75;21189;-78
2021/11/04 06:03:49;;;;;;;5.97;3.00;;;32.20;74.80;;;;;;1901183;73;21175;-79
2021/11/04 06:06:20;;;;;;;8.25;3.12;;;32.10;74.30;;;;;;1893605;75;21236;-78
2021/11/04 06:08:50;;;;;;;6.37;3.40;;;32.10;74.60;;;;;;1894376;73;21117;-79
2021/11/04 06:11:21;;;;;;;7.80;3.40;;;32.10;74.10;;;;;;1894496;75;21611;-78
2021/11/04 06:13:52;;;;;;;7.00;3.30;;;32.20;74.50;;;;;;1911112;75;21099;-78
2021/11/04 06:16:23;;;;;;;6.78;3.37;;;32.20;74.10;;;;;;1912115;75;21528;-79
2021/11/04 06:18:54;;;;;;;6.33;3.20;;;32.30;74.70;;;;;;1898818;75;21130;-79
2021/11/04 06:21:24;;;;;;;6.80;3.47;;;32.40;74.10;;;;;;1881873;75;21686;-79
2021/11/04 06:23:55;;;;;;;5.17;3.17;;;32.40;73.30;;;;;;1905629;75;21217;-79
2021/11/04 06:26:26;;;;;;;5.35;3.35;;;32.40;72.60;;;;;;1886220;75;21189;-79
2021/11/04 06:28:58;;;;;;;6.87;2.83;;;32.40;72.10;;;;;;1911062;74;21237;-79
2021/11/04 06:31:29;;;;;;;9.83;3.20;;;32.50;72.60;;;;;;1911984;74;21104;-79
2021/11/04 06:33:59;;;;;;;5.78;3.05;;;32.50;73.20;;;;;;1910695;75;21201;-78
2021/11/04 06:36:30;;;;;;;5.80;3.55;;;32.60;72.50;;;;;;1905196;75;21175;-78
2021/11/04 06:39:02;;;;;;;5.92;3.87;;;32.60;72.60;;;;;;1879657;75;21552;-78
2021/11/04 06:41:33;;;;;;;5.62;3.22;;;32.70;72.70;;;;;;1829853;77;21155;-79
2021/11/04 06:44:04;;;;;;;6.65;3.17;;;32.70;72.30;;;;;;1840007;77;21567;-79
2021/11/04 06:46:36;;;;;;;5.67;2.77;;;32.80;71.70;;;;;;1812951;78;21091;-78
2021/11/04 06:49:09;;;;;;;6.05;3.10;;;32.90;72.00;;;;;;1882907;75;21171;-79
2021/11/04 06:51:42;;;;;;;4.65;2.70;;;33.00;72.00;;;;;;1892801;75;21077;-79
2021/11/04 06:54:15;;;;;;;8.95;3.40;;;32.90;70.80;;;;;;1902157;75;21606;-79
2021/11/04 06:56:48;;;;;;;7.97;2.90;;;32.90;69.80;;;;;;1884799;75;21166;-79
2021/11/04 06:59:21;;;;;;;6.28;2.67;;;33.00;72.60;;;;;;1880001;75;21180;-80
2021/11/04 07:01:54;;;;;;;5.92;2.50;;;33.00;70.60;;;;;;1880045;75;21112;-79
2021/11/04 07:04:29;;;;;;;9.98;3.08;;;32.90;69.30;;;;;;1901262;73;21120;-78
2021/11/04 07:07:05;;;;;;;6.03;2.83;;;32.90;69.40;;;;;;1897022;75;21694;-80
2021/11/04 07:09:35;;;;;;;5.97;2.50;;;32.90;70.00;;;;;;1903906;73;21877;-79
2021/11/04 07:12:08;;;;;;;5.50;2.58;;;32.80;69.30;;;;;;1897151;75;21073;-79
2021/11/04 07:14:41;;;;;;;5.72;2.55;;;32.70;69.80;;;;;;1902911;74;21057;-78
2021/11/04 07:17:14;;;;;;;5.15;2.87;;;32.60;68.90;;;;;;1847099;76;21088;-78
2021/11/04 07:19:47;;;;;;;5.97;3.00;;;32.60;68.90;;;;;;1901327;75;21124;-79
2021/11/04 07:22:20;;;;;;;4.87;2.75;;;32.50;68.90;;;;;;1894236;75;21639;-79
2021/11/04 07:24:53;;;;;;;5.05;2.75;;;32.40;69.10;;;;;;1907659;75;21139;-78
2021/11/04 07:27:26;;;;;;;8.05;3.55;;;32.20;69.90;;;;;;1884337;75;21135;-78
2021/11/04 07:30:00;;;;;;;4.72;2.62;;;32.10;70.60;;;;;;1833994;77;21163;-80
2021/11/04 07:32:32;;;;;;;4.95;2.77;;;32.00;70.60;;;;;;1831214;77;21239;-79
2021/11/04 07:35:04;;;;;;;6.03;2.90;;;31.90;70.40;;;;;;1844830;76;21515;-79
2021/11/04 07:37:36;;;;;;;6.00;2.83;;;32.00;72.00;;;;;;1886960;74;21144;-78
2021/11/04 07:40:07;;;;;;;5.50;2.80;;;32.00;71.80;;;;;;1899434;75;21553;-77
2021/11/04 07:42:39;;;;;;;5.60;3.10;;;32.00;72.40;;;;;;1882809;75;21144;-79
2021/11/04 07:45:10;;;;;;;5.33;2.75;;;31.90;72.00;;;;;;1886442;75;21595;-78
2021/11/04 07:47:43;;;;;;;6.12;3.02;;;31.90;72.30;;;;;;1884994;75;21068;-78
2021/11/04 07:50:17;;;;;;;6.45;3.25;;;31.80;72.10;;;;;;1905615;75;22246;-80
2021/11/04 07:52:49;;;;;;;4.00;2.62;;;31.70;72.40;;;;;;1889117;75;21187;-79
2021/11/04 07:55:21;;;;;;;8.30;2.80;;;31.60;72.00;;;;;;1890206;75;21143;-78
2021/11/04 07:57:52;;;;;;;6.35;3.15;;;31.60;72.20;;;;;;1894896;75;21128;-79
2021/11/04 08:00:28;;;;;;;5.83;2.80;;;31.70;72.20;;;;;;1897430;75;21677;-79
2021/11/04 08:02:57;;;;;;;4.08;2.70;;;31.70;70.60;;;;;;1902635;74;22165;-79
2021/11/04 08:05:28;;;;;;;6.08;2.72;;;31.80;71.40;;;;;;1887703;75;21540;-78
2021/11/04 08:07:59;;;;;;;8.95;3.08;;;31.80;69.80;;;;;;1892242;75;21107;-78
2021/11/04 08:10:31;;;;;;;7.12;3.40;;;31.90;69.90;;;;;;1886445;75;21060;-78
2021/11/04 08:13:13;;;;;;;6.22;2.62;;;31.90;70.30;;;;;;1865537;74;21116;-79
2021/11/04 08:15:36;;;;;;;6.55;2.87;;;32.00;70.20;;;;;;1897896;75;21658;-78
2021/11/04 08:18:08;;;;;;;6.20;3.17;;;32.00;71.20;;;;;;1911392;75;21163;-77
2021/11/04 08:20:40;;;;;;;4.12;2.47;;;32.00;71.20;;;;;;1899775;74;21587;-78
2021/11/04 08:23:13;;;;;;;5.05;2.92;;;31.90;71.00;;;;;;1882865;75;21154;-79
2021/11/04 08:25:45;;;;;;;5.05;2.85;;;31.90;70.90;;;;;;1889094;73;21166;-81
2021/11/04 08:28:15;;;;;;;3.87;2.40;;;31.90;70.50;;;;;;1898164;75;21666;-80
2021/11/04 08:30:46;;;;;;;4.95;2.75;;;31.80;70.10;;;;;;1896337;75;21112;-83
2021/11/04 08:33:18;;;;;;;4.50;2.62;;;31.70;71.50;;;;;;1887523;75;21190;-82
2021/11/04 08:35:48;;;;;;;4.40;2.72;;;31.70;71.10;;;;;;1902139;74;21240;-81
2021/11/04 08:38:21;;;;;;;6.72;3.02;;;31.60;70.70;;;;;;1889633;75;21780;-80
2021/11/04 08:40:52;;;;;;;5.50;2.62;;;31.50;71.10;;;;;;1903774;75;21104;-80
2021/11/04 08:43:23;;;;;;;5.95;2.75;;;31.60;71.00;;;;;;1894716;75;21139;-82
2021/11/04 08:45:54;;;;;;;5.33;2.80;;;31.50;71.20;;;;;;1892937;75;21536;-79
2021/11/04 08:48:25;;;;;;;5.15;2.92;;;31.50;73.10;;;;;;1875990;76;21135;-80
2021/11/04 08:50:56;;;;;;;6.72;3.12;;;31.50;72.40;;;;;;1830465;76;21655;-80
2021/11/04 08:53:27;;;;;;;9.15;3.00;;;31.50;71.90;;;;;;1878571;75;21583;-80
2021/11/04 08:55:58;;;;;;;5.60;3.10;;;31.50;72.50;;;;;;1886181;73;21580;-80
2021/11/04 08:58:29;;;;;;;7.20;2.65;;;31.40;72.10;;;;;;1903279;75;21525;-80
2021/11/04 09:01:00;;;;;;;4.45;2.75;;;31.40;72.40;;;;;;1904164;74;21198;-80
2021/11/04 09:03:31;;;;;;;4.90;2.42;;;31.40;71.90;;;;;;1897262;75;21081;-81
2021/11/04 09:06:03;;;;;;;5.70;2.80;;;31.30;72.00;;;;;;1900603;75;21097;-80
2021/11/04 09:08:34;;;;;;;6.22;2.65;;;31.30;72.30;;;;;;1839834;77;21088;-80
2021/11/04 09:11:06;;;;;;;7.28;2.80;;;31.30;72.30;;;;;;1825308;76;21087;-81
2021/11/04 09:13:37;;;;;;;5.58;2.92;;;31.20;72.40;;;;;;1843033;77;21135;-80
2021/11/04 09:16:08;;;;;;;6.78;3.62;;;31.20;72.30;;;;;;1844957;76;21204;-79
2021/11/04 09:18:39;;;;;;;7.05;3.72;;;31.20;72.50;;;;;;1817123;78;21213;-81
2021/11/04 09:21:10;;;;;;;5.60;3.17;;;31.20;72.10;;;;;;1841827;78;21092;-81
2021/11/04 09:23:44;;;;;;;6.20;2.90;;;31.10;72.10;;;;;;1830496;77;21182;-80
2021/11/04 09:26:15;;;;;;;6.42;3.47;;;31.10;72.20;;;;;;1835634;76;21629;-82
2021/11/04 09:28:46;;;;;;;7.45;3.67;;;31.10;72.20;;;;;;1816090;76;21188;-83
2021/11/04 09:31:21;;;;;;;8.23;3.45;;;31.10;72.20;;;;;;1827795;76;21234;-77
2021/11/04 09:33:58;;;;;;;6.80;3.17;;;31.10;72.10;;;;;;1809812;78;21126;-78
2021/11/04 09:36:30;;;;;;;6.83;3.22;;;31.10;72.30;;;;;;1849747;76;21649;-80
2021/11/04 09:39:02;;;;;;;5.40;3.08;;;31.00;71.70;;;;;;1837510;77;21201;-79
2021/11/04 09:41:34;;;;;;;6.85;2.90;;;31.00;72.50;;;;;;1829524;77;21667;-80
2021/11/04 09:44:05;;;;;;;5.97;3.20;;;31.00;72.50;;;;;;1837075;77;21164;-79
2021/11/04 09:46:37;;;;;;;6.33;2.90;;;31.00;72.70;;;;;;1832790;76;21673;-79
2021/11/04 09:49:08;;;;;;;9.38;6.33;;;31.00;72.50;;;;;;1833109;76;21556;-80
2021/11/04 09:51:39;;;;;;;5.80;3.25;;;31.00;72.60;;;;;;1829602;77;21155;-80
2021/11/04 09:54:10;;;;;;;7.92;3.58;;;31.00;72.30;;;;;;1831253;77;21495;-81
2021/11/04 09:56:42;;;;;;;6.70;3.25;;;30.90;72.30;;;;;;1825829;77;21537;-80
2021/11/04 09:59:14;;;;;;;15.30;4.12;;;30.90;72.10;;;;;;1815490;78;21141;-81
2021/11/04 10:01:49;;;;;;;8.20;4.25;;;30.90;74.70;;;;;;1833761;77;21160;-82
2021/11/04 10:04:22;;;;;;;9.28;3.70;;;30.80;74.40;;;;;;1836636;77;21513;-82
2021/11/04 10:06:55;;;;;;;9.33;3.40;;;30.80;74.60;;;;;;1835452;76;21136;-81
2021/11/04 10:09:28;;;;;;;37.75;7.60;;;30.70;75.50;;;;;;1852734;76;21730;-83
2021/11/04 10:12:13;;;;;;;;;;;;;;;;;;;;;
2021/11/04 10:14:43;;;;;;;18.82;4.45;;;30.60;76.60;;;;;;1914773;73;21119;-82
2021/11/04 10:17:16;;;;;;;33.50;5.75;;;30.60;76.60;;;;;;1905729;73;21112;-79
2021/11/04 10:19:47;;;;;;;42.98;7.00;;;30.50;77.20;;;;;;1868103;74;21161;-78
2021/11/04 10:22:29;;;;;;;82.25;10.53;;;30.50;77.00;;;;;;1889515;75;21336;-82
2021/11/04 10:25:02;;;;;;;66.90;8.40;;;30.40;76.80;;;;;;1908388;75;21065;-85
2021/11/04 10:27:35;;;;;;;15.32;4.62;;;30.40;77.20;;;;;;1899138;75;21177;-84
2021/11/04 10:30:08;;;;;;;29.48;4.80;;;30.30;77.20;;;;;;1884432;75;21206;-78
2021/11/04 10:32:39;;;;;;;15.43;3.75;;;30.30;77.40;;;;;;1893950;75;21570;-80
2021/11/04 10:35:13;;;;;;;8.13;3.40;;;30.30;77.30;;;;;;1890715;75;21726;-81
2021/11/04 10:37:50;;;;;;;6.90;3.52;;;30.20;77.10;;;;;;1911898;75;21112;-81
2021/11/04 10:40:21;;;;;;;7.72;3.80;;;30.20;77.70;;;;;;1911459;74;21265;-80
2021/11/04 10:42:59;;;;;;;10.45;4.47;;;30.20;77.90;;;;;;1877778;76;21088;-82
2021/11/04 10:45:29;;;;;;;12.05;4.00;;;30.20;78.60;;;;;;1907284;74;21214;-81
2021/11/04 10:48:02;;;;;;;12.07;4.80;;;30.10;78.30;;;;;;1903471;75;21142;-81
2021/11/04 10:50:35;;;;;;;29.02;5.87;;;30.00;78.80;;;;;;1902093;74;21182;-81
2021/11/04 10:53:07;;;;;;;11.48;3.92;;;30.00;79.10;;;;;;1883220;74;21045;-80
2021/11/04 10:55:39;;;;;;;8.90;3.77;;;30.00;78.90;;;;;;1874899;76;21069;-81
2021/11/04 10:58:15;;;;;;;8.33;3.40;;;29.90;78.60;;;;;;1876559;75;21182;-79
2021/11/04 11:00:51;;;;;;;7.28;3.30;;;29.90;78.70;;;;;;1831319;78;21146;-80
2021/11/04 11:03:23;;;;;;;10.15;4.08;;;29.90;78.80;;;;;;1892228;75;21140;-80
2021/11/04 11:05:59;;;;;;;9.18;4.03;;;29.90;78.80;;;;;;1895178;75;21198;-81
2021/11/04 11:08:28;;;;;;;13.05;5.08;;;29.80;78.90;;;;;;1897754;74;21143;-81
2021/11/04 11:10:59;;;;;;;22.45;5.42;;;29.80;79.50;;;;;;1875593;75;21155;-81
2021/11/04 11:13:30;;;;;;;10.78;5.45;;;29.80;80.60;;;;;;1838086;78;21160;-81
2021/11/04 11:16:02;;;;;;;10.25;5.83;;;29.80;80.70;;;;;;1836587;78;21615;-81
2021/11/04 11:18:36;;;;;;;11.63;4.72;;;29.70;80.10;;;;;;1822540;78;21161;-81
2021/11/04 11:21:08;;;;;;;6.80;3.77;;;29.70;79.90;;;;;;1813249;78;21552;-80
2021/11/04 11:23:39;;;;;;;9.03;3.87;;;29.70;79.70;;;;;;1877239;75;21154;-81
2021/11/04 11:26:14;;;;;;;8.08;3.98;;;29.60;80.00;;;;;;1837461;78;21143;-81
2021/11/04 11:28:45;;;;;;;11.43;4.62;;;29.60;81.10;;;;;;1835204;78;21467;-80
2021/11/04 11:31:18;;;;;;;13.72;6.47;;;29.50;80.60;;;;;;1834780;78;21189;-80
2021/11/04 11:33:51;;;;;;;23.70;7.55;;;29.40;80.20;;;;;;1893814;76;21120;-81
2021/11/04 11:36:26;;;;;;;12.35;6.25;;;29.40;80.30;;;;;;1891595;75;21590;-80
2021/11/04 11:38:59;;;;;;;12.68;5.92;;;29.50;80.60;;;;;;1899256;75;21084;-80
2021/11/04 11:41:32;;;;;;;13.90;6.53;;;29.50;80.60;;;;;;1919724;74;21158;-80
2021/11/04 11:44:06;;;;;;;12.55;6.45;;;29.50;81.20;;;;;;1902050;74;21661;-79
2021/11/04 11:46:38;;;;;;;15.48;6.25;;;29.60;81.90;;;;;;1846654;77;21075;-79
2021/11/04 11:49:11;;;;;;;9.85;6.05;;;29.60;82.50;;;;;;1889562;75;21195;-79
2021/11/04 11:51:54;;;;;;;12.88;6.85;;;29.50;82.70;;;;;;1900912;75;21409;-80
2021/11/04 11:54:16;;;;;;;11.55;7.65;;;29.60;82.70;;;;;;1893502;74;21079;-79
2021/11/04 11:56:49;;;;;;;9.13;6.50;;;29.60;83.50;;;;;;1898013;74;21029;-80
2021/11/04 11:59:25;;;;;;;18.70;7.35;;;29.50;83.40;;;;;;1919453;74;21501;-80
2021/11/04 12:01:54;;;;;;;11.90;6.60;;;29.50;83.80;;;;;;1924206;74;21146;-80
2021/11/04 12:04:28;;;;;;;11.78;6.85;;;29.50;84.10;;;;;;1913037;74;21584;-80
2021/11/04 12:07:00;;;;;;;16.10;8.58;;;29.40;84.40;;;;;;1902098;74;21576;-81
2021/11/04 12:09:33;;;;;;;21.45;11.78;;;29.40;85.00;;;;;;1924384;74;21213;-80
2021/11/04 12:12:06;;;;;;;19.37;11.25;;;29.40;85.50;;;;;;1893108;74;21614;-79
2021/11/04 12:14:38;;;;;;;21.68;11.12;;;29.30;85.60;;;;;;1924203;74;21568;-80
2021/11/04 12:17:11;;;;;;;18.30;9.93;;;29.30;85.60;;;;;;1899310;74;21167;-80
2021/11/04 12:19:45;;;;;;;18.62;10.00;;;29.40;85.40;;;;;;1849477;77;21734;-80
2021/11/04 12:22:19;;;;;;;17.23;9.55;;;29.30;85.50;;;;;;1917458;73;21572;-80
2021/11/04 12:24:53;;;;;;;17.67;10.18;;;29.40;86.00;;;;;;1923167;74;21104;-81
2021/11/04 12:27:25;;;;;;;15.98;9.10;;;29.30;86.30;;;;;;1918760;74;21093;-81
2021/11/04 12:30:03;;;;;;;17.45;9.95;;;29.40;86.70;;;;;;1908336;74;21135;-81
2021/11/04 12:32:34;;;;;;;17.27;10.38;;;29.30;87.70;;;;;;1903756;74;21160;-79
2021/11/04 12:35:06;;;;;;;17.62;10.05;;;29.30;88.40;;;;;;1909179;74;21123;-80
2021/11/04 12:37:37;;;;;;;19.65;10.38;;;29.20;88.40;;;;;;1912141;74;21104;-80
2021/11/04 12:40:11;;;;;;;15.90;9.58;;;29.20;87.90;;;;;;1899471;74;21069;-81
2021/11/04 12:42:51;;;;;;;18.90;10.88;;;29.20;87.80;;;;;;1893472;74;21561;-82
2021/11/04 12:45:25;;;;;;;20.85;10.68;;;29.30;88.00;;;;;;1894884;75;21171;-81
2021/11/04 12:47:59;;;;;;;21.00;9.93;;;29.30;88.50;;;;;;1897825;75;21131;-80
2021/11/04 12:50:33;;;;;;;18.67;9.78;;;29.30;88.60;;;;;;1889587;75;21127;-80
2021/11/04 12:53:12;;;;;;;26.65;10.90;;;29.30;88.60;;;;;;1895039;75;21116;-81
2021/11/04 12:56:14;;;;;;;25.68;11.60;;;29.30;88.50;;;;;;1962093;72;21061;-79
2021/11/04 12:58:50;;;;;;;21.87;11.53;;;29.30;88.50;;;;;;1953077;73;21153;-80
2021/11/04 13:01:22;;;;;;;17.87;8.88;;;29.30;88.90;;;;;;1912025;74;21552;-81
2021/11/04 13:03:53;;;;;;;22.87;9.98;;;29.30;88.50;;;;;;1866794;75;21114;-81
2021/11/04 13:06:24;;;;;;;27.75;10.50;;;29.30;89.00;;;;;;1897665;75;21588;-81
2021/11/04 13:08:57;;;;;;;18.62;9.73;;;29.30;89.90;;;;;;1884234;76;21136;-81